createdAt,value
2023-01-08T09:32:47.251Z,17.57
2023-01-08T09:34:50.052Z,18.98
2023-01-08T09:36:52.487Z,19.50
2023-01-08T09:38:54.810Z,18.23
2023-01-08T09:41:01.230Z,17.80
2023-01-08T09:43:06.173Z,20.85
2023-01-08T09:45:19.421Z,16.05
2023-01-08T09:47:30.311Z,16.95
2023-01-08T09:49:45.825Z,18.40
2023-01-08T09:51:48.338Z,21.10
2023-01-08T09:53:55.588Z,18.27
2023-01-08T09:56:11.210Z,17.27
2023-01-08T09:58:28.102Z,17.08
2023-01-08T10:00:34.052Z,16.37
2023-01-08T10:02:39.078Z,17.42
2023-01-08T10:04:42.834Z,16.73
2023-01-08T10:06:52.078Z,16.50
2023-01-08T10:08:54.766Z,15.88
2023-01-08T10:10:57.103Z,16.80
2023-01-08T10:12:59.873Z,17.30
2023-01-08T10:15:06.167Z,16.20
2023-01-08T10:17:26.417Z,16.90
2023-01-08T10:19:28.870Z,16.63
2023-01-08T10:21:37.980Z,16.33
2023-01-08T10:23:53.087Z,15.90
2023-01-08T10:25:58.409Z,16.85
2023-01-08T10:28:03.441Z,17.00
2023-01-08T10:30:07.354Z,16.20
2023-01-08T10:32:27.563Z,15.77
2023-01-08T10:34:41.711Z,16.50
2023-01-08T10:36:44.142Z,15.27
2023-01-08T10:38:56.707Z,15.85
2023-01-08T10:41:03.455Z,16.30
2023-01-08T10:43:12.657Z,17.23
2023-01-08T10:45:23.860Z,16.12
2023-01-08T10:47:30.219Z,16.15
2023-01-08T10:49:39.223Z,16.62
2023-01-08T10:51:50.618Z,15.63
2023-01-08T10:53:56.381Z,18.08
2023-01-08T10:56:04.332Z,17.15
2023-01-08T10:58:09.756Z,16.87
2023-01-08T11:00:27.446Z,19.02
2023-01-08T11:02:39.617Z,17.55
2023-01-08T11:04:42.739Z,20.05
2023-01-08T11:06:48.510Z,17.42
2023-01-08T11:08:53.310Z,17.40
2023-01-08T11:10:59.830Z,17.67
2023-01-08T11:13:07.508Z,16.70
2023-01-08T11:15:17.812Z,17.90
2023-01-08T11:17:20.347Z,18.65
2023-01-08T11:19:27.038Z,16.80
2023-01-08T11:21:31.714Z,17.73
2023-01-08T11:23:34.072Z,16.92
2023-01-08T11:25:39.278Z,17.62
2023-01-08T11:27:44.594Z,17.23
2023-01-08T11:29:56.084Z,19.02
2023-01-08T11:32:27.394Z,18.37
2023-01-08T11:34:57.827Z,19.15
2023-01-08T11:37:31.415Z,16.70
2023-01-08T11:39:36.662Z,16.62
2023-01-08T11:42:03.346Z,16.98
2023-01-08T11:44:29.720Z,22.08
2023-01-08T11:46:46.145Z,18.33
2023-01-08T11:49:12.607Z,17.40
2023-01-08T11:51:33.930Z,17.90
2023-01-08T11:53:36.182Z,18.73
2023-01-08T11:56:07.995Z,17.08
2023-01-08T11:58:27.336Z,17.50
2023-01-08T12:00:55.846Z,18.00
2023-01-08T12:03:08.182Z,18.73
2023-01-08T12:05:22.871Z,22.65
2023-01-08T12:07:28.191Z,28.00
2023-01-08T12:09:46.377Z,18.95
2023-01-08T12:12:00.592Z,19.15
2023-01-08T12:14:05.563Z,18.45
2023-01-08T12:16:29.946Z,19.73
2023-01-08T12:19:23.024Z,19.10
2023-01-08T12:21:34.182Z,19.05
2023-01-08T12:24:13.956Z,18.15
2023-01-08T12:26:43.380Z,18.45
2023-01-08T12:28:53.084Z,18.40
2023-01-08T12:31:31.032Z,18.95
2023-01-08T12:33:33.465Z,18.27
2023-01-08T12:35:44.954Z,18.80
2023-01-08T12:38:00.355Z,18.58
2023-01-08T12:40:33.079Z,18.52
2023-01-08T12:42:44.520Z,16.92
2023-01-08T12:44:49.452Z,17.42
2023-01-08T12:46:54.563Z,17.87
2023-01-08T12:48:57.800Z,18.55
2023-01-08T12:51:08.958Z,18.23
2023-01-08T12:53:35.669Z,18.98
2023-01-08T12:56:01.142Z,18.95
2023-01-08T12:58:21.739Z,18.12
2023-01-08T13:00:56.983Z,18.92
2023-01-08T13:03:02.550Z,19.37
2023-01-08T13:05:35.531Z,45.38
2023-01-08T13:07:44.786Z,19.05
2023-01-08T13:09:56.018Z,20.88
2023-01-08T13:14:02.556Z,19.62
2023-01-08T13:16:14.168Z,19.20
2023-01-08T13:18:20.400Z,20.05
2023-01-08T13:20:28.985Z,19.52
2023-01-08T13:22:37.010Z,18.27
2023-01-08T13:24:41.222Z,19.98
2023-01-08T13:26:43.611Z,19.33
2023-01-08T13:28:46.327Z,19.87
2023-01-08T13:30:49.970Z,21.25
2023-01-08T13:32:52.831Z,21.25
2023-01-08T13:35:17.295Z,20.17
2023-01-08T13:37:27.788Z,20.48
2023-01-08T13:39:39.966Z,20.58
2023-01-08T13:41:56.395Z,19.60
2023-01-08T13:44:02.524Z,21.42
2023-01-08T13:46:09.294Z,18.67
2023-01-08T13:48:23.083Z,21.40
2023-01-08T13:50:28.761Z,20.00
2023-01-08T13:52:45.301Z,20.52
2023-01-08T13:54:48.789Z,20.50
2023-01-08T13:57:02.609Z,20.30
2023-01-08T13:59:08.150Z,20.90
2023-01-08T14:01:11.710Z,20.05
2023-01-08T14:03:30.867Z,20.67
2023-01-08T14:05:37.043Z,20.48
2023-01-08T14:07:39.509Z,20.00
2023-01-08T14:09:42.157Z,21.12
2023-01-08T14:11:47.126Z,20.52
2023-01-08T14:13:49.940Z,18.92
2023-01-08T14:15:52.718Z,20.35
2023-01-08T14:17:56.826Z,19.55
2023-01-08T14:19:59.670Z,21.33
2023-01-08T14:22:02.314Z,20.90
2023-01-08T14:24:06.200Z,21.30
2023-01-08T14:26:14.103Z,20.67
2023-01-08T14:28:19.603Z,20.95
2023-01-08T14:30:22.062Z,20.27
2023-01-08T14:32:29.972Z,21.15
2023-01-08T14:34:35.477Z,21.45
2023-01-08T14:36:37.981Z,22.02
2023-01-08T14:38:40.343Z,21.42
2023-01-08T14:40:51.257Z,23.52
2023-01-08T14:42:54.711Z,22.05
2023-01-08T14:45:00.315Z,23.40
2023-01-08T14:47:03.473Z,27.27
2023-01-08T14:49:05.885Z,22.92
2023-01-08T14:51:11.871Z,23.52
2023-01-08T14:53:14.644Z,23.75
2023-01-08T14:55:20.167Z,22.83
2023-01-08T14:57:24.279Z,25.70
2023-01-08T14:59:31.583Z,24.20
2023-01-08T15:01:35.166Z,27.37
2023-01-08T15:03:41.076Z,24.17
2023-01-08T15:05:49.935Z,25.70
2023-01-08T15:08:19.206Z,25.37
2023-01-08T15:10:41.612Z,25.98
2023-01-08T15:12:44.313Z,26.00
2023-01-08T15:14:46.891Z,25.73
2023-01-08T15:16:49.520Z,25.85
2023-01-08T15:19:00.162Z,25.02
2023-01-08T15:21:02.654Z,25.52
2023-01-08T15:23:05.238Z,26.92
2023-01-08T15:25:15.848Z,26.67
2023-01-08T15:27:19.920Z,27.60
2023-01-08T15:29:33.870Z,28.70
2023-01-08T15:31:39.869Z,27.40
2023-01-08T15:33:44.906Z,26.62
2023-01-08T15:35:48.176Z,26.90
2023-01-08T15:37:50.764Z,28.50
2023-01-08T15:39:53.305Z,29.10
2023-01-08T15:42:14.580Z,27.85
2023-01-08T15:44:17.483Z,27.83
2023-01-08T15:46:19.882Z,28.92
2023-01-08T15:48:22.224Z,29.42
2023-01-08T15:50:26.513Z,29.23
2023-01-08T15:52:32.213Z,28.05
2023-01-08T15:54:34.653Z,27.73
2023-01-08T15:56:37.423Z,29.30
2023-01-08T15:58:39.981Z,28.08
2023-01-08T16:00:45.968Z,29.48
2023-01-08T16:02:53.456Z,30.55
2023-01-08T16:04:57.262Z,28.15
2023-01-08T16:06:59.777Z,28.48
2023-01-08T16:09:02.826Z,29.75
2023-01-08T16:11:05.775Z,28.98
2023-01-08T16:13:11.684Z,28.95
2023-01-08T16:15:16.795Z,28.92
2023-01-08T16:17:19.448Z,27.90
2023-01-08T16:19:24.324Z,27.50
2023-01-08T16:21:27.856Z,29.23
2023-01-08T16:23:31.860Z,27.85
2023-01-08T16:25:34.689Z,27.62
2023-01-08T16:27:41.360Z,28.73
2023-01-08T16:29:44.440Z,32.35
2023-01-08T16:31:48.444Z,30.52
2023-01-08T16:33:51.362Z,28.60
2023-01-08T16:36:02.040Z,28.27
2023-01-08T16:38:04.603Z,27.65
2023-01-08T16:40:08.453Z,28.58
2023-01-08T16:42:12.103Z,27.75
2023-01-08T16:44:27.097Z,27.37
2023-01-08T16:46:31.261Z,27.52
2023-01-08T16:48:34.290Z,29.23
2023-01-08T16:50:37.215Z,28.10
2023-01-08T16:52:42.184Z,27.65
2023-01-08T16:54:46.203Z,28.65
2023-01-08T16:56:48.627Z,28.48
2023-01-08T16:58:52.307Z,27.30
2023-01-08T17:00:55.265Z,27.75
2023-01-08T17:02:58.287Z,27.52
2023-01-08T17:05:01.070Z,27.77
2023-01-08T17:07:04.783Z,26.92
2023-01-08T17:09:10.273Z,28.38
2023-01-08T17:11:17.288Z,25.98
2023-01-08T17:13:19.915Z,27.33
2023-01-08T17:15:22.558Z,27.85
2023-01-08T17:17:25.370Z,26.45
2023-01-08T17:19:28.599Z,28.42
2023-01-08T17:21:31.893Z,27.40
2023-01-08T17:23:36.128Z,28.83
2023-01-08T17:25:40.963Z,23.85
2023-01-08T17:27:43.876Z,26.85
2023-01-08T17:29:47.275Z,27.65
2023-01-08T17:31:50.729Z,26.50
2023-01-08T17:33:54.606Z,28.45
2023-01-08T17:35:58.484Z,24.75
2023-01-08T17:38:01.262Z,25.40
2023-01-08T17:40:04.856Z,27.77
2023-01-08T17:42:27.916Z,26.98
2023-01-08T17:44:31.262Z,27.67
2023-01-08T17:46:42.472Z,26.25
2023-01-08T17:48:47.007Z,25.45
2023-01-08T17:50:49.839Z,25.92
2023-01-08T17:52:52.978Z,26.73
2023-01-08T17:54:57.910Z,26.70
2023-01-08T17:57:00.611Z,26.52
2023-01-08T17:59:02.987Z,26.20
2023-01-08T18:01:11.440Z,28.55
2023-01-08T18:03:14.779Z,25.98
2023-01-08T18:05:17.787Z,27.20
2023-01-08T18:07:21.015Z,24.25
2023-01-08T18:09:25.749Z,25.55
2023-01-08T18:11:28.962Z,24.85
2023-01-08T18:13:33.325Z,24.98
2023-01-08T18:15:36.280Z,26.90
2023-01-08T18:17:39.858Z,24.98
2023-01-08T18:19:42.543Z,33.50
2023-01-08T18:21:47.625Z,26.75
2023-01-08T18:23:50.515Z,24.73
2023-01-08T18:25:53.079Z,25.73
2023-01-08T18:27:57.623Z,26.80
2023-01-08T18:30:01.258Z,25.55
2023-01-08T18:32:04.723Z,25.58
2023-01-08T18:34:09.971Z,25.35
2023-01-08T18:36:13.421Z,27.65
2023-01-08T18:38:19.641Z,25.70
2023-01-08T18:40:23.952Z,24.27
2023-01-08T18:42:26.867Z,30.48
2023-01-08T18:44:29.905Z,28.85
2023-01-08T18:46:33.089Z,26.80
2023-01-08T18:48:36.163Z,25.75
2023-01-08T18:50:40.455Z,24.12
2023-01-08T18:52:45.912Z,26.12
2023-01-08T18:54:49.113Z,26.40
2023-01-08T18:56:52.588Z,26.92
2023-01-08T18:58:56.304Z,27.77
2023-01-08T19:01:05.419Z,26.08
2023-01-08T19:03:09.273Z,25.73
2023-01-08T19:05:12.851Z,25.45
2023-01-08T19:07:17.495Z,25.48
2023-01-08T19:09:20.439Z,32.63
2023-01-08T19:11:23.466Z,25.12
2023-01-08T19:13:26.335Z,25.73
2023-01-08T19:15:29.616Z,27.37
2023-01-08T19:17:33.773Z,25.48
2023-01-08T19:19:37.066Z,24.85
2023-01-08T19:21:41.182Z,25.37
2023-01-08T19:23:44.664Z,24.45
2023-01-08T19:25:47.487Z,25.65
2023-01-08T19:27:50.456Z,25.58
2023-01-08T19:29:53.788Z,24.70
2023-01-08T19:31:57.712Z,22.90
2023-01-08T19:34:02.430Z,24.27
2023-01-08T19:36:11.501Z,23.73
2023-01-08T19:38:15.150Z,22.05
2023-01-08T19:40:18.691Z,20.25
2023-01-08T19:42:40.384Z,18.50
2023-01-08T19:44:43.832Z,17.30
2023-01-08T19:46:46.994Z,17.75
2023-01-08T19:48:52.772Z,19.10
2023-01-08T19:50:56.259Z,16.90
2023-01-08T19:52:59.727Z,18.33
2023-01-08T19:55:03.487Z,16.90
2023-01-08T19:57:06.258Z,16.73
2023-01-08T19:59:11.621Z,17.30
2023-01-08T20:01:20.758Z,19.80
2023-01-08T20:03:29.155Z,16.20
2023-01-08T20:05:32.545Z,15.65
2023-01-08T20:07:36.711Z,15.93
2023-01-08T20:09:40.736Z,14.25
2023-01-08T20:11:43.703Z,14.52
2023-01-08T20:13:47.278Z,13.52
2023-01-08T20:15:57.899Z,13.50
2023-01-08T20:18:01.187Z,13.18
2023-01-08T20:20:04.702Z,13.73
2023-01-08T20:22:09.384Z,12.30
2023-01-08T20:24:14.613Z,10.90
2023-01-08T20:26:19.243Z,11.23
2023-01-08T20:28:22.897Z,12.18
2023-01-08T20:30:25.410Z,14.20
2023-01-08T20:32:29.227Z,12.07
2023-01-08T20:34:32.966Z,11.70
2023-01-08T20:36:37.145Z,11.10
2023-01-08T20:38:41.501Z,12.57
2023-01-08T20:40:44.846Z,10.98
2023-01-08T20:42:47.976Z,11.32
2023-01-08T20:44:51.599Z,11.60
2023-01-08T20:46:55.017Z,10.98
2023-01-08T20:49:00.830Z,11.85
2023-01-08T20:51:05.622Z,11.38
2023-01-08T20:53:08.858Z,12.43
2023-01-08T20:55:12.189Z,10.50
2023-01-08T20:57:14.985Z,11.93
2023-01-08T20:59:18.125Z,10.75
2023-01-08T21:01:23.241Z,11.15
2023-01-08T21:03:26.879Z,12.50
2023-01-08T21:05:30.277Z,11.68
2023-01-08T21:07:32.938Z,10.90
2023-01-08T21:09:35.380Z,11.43
2023-01-08T21:11:41.060Z,12.82
2023-01-08T21:13:43.673Z,11.95
2023-01-08T21:15:45.987Z,12.63
2023-01-08T21:17:49.304Z,12.00
2023-01-08T21:19:51.806Z,11.93
2023-01-08T21:21:54.168Z,12.13
2023-01-08T21:23:57.456Z,11.40
2023-01-08T21:26:03.221Z,10.88
2023-01-08T21:28:05.895Z,11.45
2023-01-08T21:30:09.532Z,11.65
2023-01-08T21:32:12.124Z,11.82
2023-01-08T21:34:14.449Z,11.20
2023-01-08T21:36:22.137Z,11.73
2023-01-08T21:38:24.588Z,11.75
2023-01-08T21:40:27.058Z,11.90
2023-01-08T21:42:48.260Z,12.30
2023-01-08T21:45:09.025Z,11.98
2023-01-08T21:47:17.341Z,12.73
2023-01-08T21:49:19.925Z,13.13
2023-01-08T21:51:41.362Z,11.88
2023-01-08T21:53:43.636Z,12.07
2023-01-08T21:55:46.524Z,11.90
2023-01-08T21:57:48.824Z,12.65
2023-01-08T21:59:51.468Z,12.70
2023-01-08T22:01:54.292Z,12.95
2023-01-08T22:03:57.000Z,12.52
2023-01-08T22:06:01.686Z,14.07
2023-01-08T22:08:05.345Z,14.18
2023-01-08T22:10:09.126Z,12.85
2023-01-08T22:12:14.036Z,13.57
2023-01-08T22:14:17.134Z,13.40
2023-01-08T22:16:19.840Z,14.63
2023-01-08T22:18:22.343Z,13.43
2023-01-08T22:20:24.794Z,12.68
2023-01-08T22:22:28.271Z,13.73
2023-01-08T22:24:30.597Z,12.52
2023-01-08T22:26:35.213Z,13.25
2023-01-08T22:28:39.399Z,13.68
2023-01-08T22:30:41.779Z,14.27
2023-01-08T22:32:44.083Z,14.57
2023-01-08T22:34:46.951Z,14.05
2023-01-08T22:36:50.496Z,13.57
2023-01-08T22:38:52.889Z,14.13
2023-01-08T22:40:55.732Z,14.27
2023-01-08T22:42:58.124Z,14.05
